sensor_id;sensor_type;location;lat;lon;timestamp;pressure;altitude;pressure_sealevel;temperature;humidity
79584;BME280;69053;57.338;18.700;2023-11-19T00:01:02;102050.06;;;0.29;78.86
79584;BME280;69053;57.338;18.700;2023-11-19T00:04:05;102047.41;;;0.29;78.62
79584;BME280;69053;57.338;18.700;2023-11-19T00:07:06;102047.50;;;0.28;78.65
79584;BME280;69053;57.338;18.700;2023-11-19T00:10:12;102038.47;;;0.29;79.20
79584;BME280;69053;57.338;18.700;2023-11-19T00:13:12;102038.38;;;0.30;78.43
79584;BME280;69053;57.338;18.700;2023-11-19T00:16:13;102040.94;;;0.32;78.20
79584;BME280;69053;57.338;18.700;2023-11-19T00:19:13;102029.25;;;0.33;78.66
79584;BME280;69053;57.338;18.700;2023-11-19T00:22:13;102032.66;;;0.35;78.56
79584;BME280;69053;57.338;18.700;2023-11-19T00:25:14;102031.44;;;0.39;77.96
79584;BME280;69053;57.338;18.700;2023-11-19T00:28:15;102024.03;;;0.43;78.42
79584;BME280;69053;57.338;18.700;2023-11-19T00:31:15;102017.97;;;0.52;77.95
79584;BME280;69053;57.338;18.700;2023-11-19T00:34:16;102013.84;;;0.59;78.53
79584;BME280;69053;57.338;18.700;2023-11-19T00:37:16;102012.50;;;0.65;77.93
79584;BME280;69053;57.338;18.700;2023-11-19T00:40:17;102008.25;;;0.73;77.79
79584;BME280;69053;57.338;18.700;2023-11-19T00:43:18;102005.94;;;0.80;78.41
79584;BME280;69053;57.338;18.700;2023-11-19T00:46:22;102005.34;;;0.88;78.01
79584;BME280;69053;57.338;18.700;2023-11-19T00:49:22;102003.88;;;0.95;77.48
79584;BME280;69053;57.338;18.700;2023-11-19T00:52:23;101995.59;;;0.98;77.90
79584;BME280;69053;57.338;18.700;2023-11-19T00:55:23;101995.22;;;1.03;77.68
79584;BME280;69053;57.338;18.700;2023-11-19T00:58:24;101988.66;;;1.07;77.58
79584;BME280;69053;57.338;18.700;2023-11-19T01:01:24;101995.47;;;1.11;77.93
79584;BME280;69053;57.338;18.700;2023-11-19T01:04:25;101986.94;;;1.17;77.27
79584;BME280;69053;57.338;18.700;2023-11-19T01:07:26;101989.09;;;1.23;77.68
79584;BME280;69053;57.338;18.700;2023-11-19T01:10:27;101983.00;;;1.33;77.77
79584;BME280;69053;57.338;18.700;2023-11-19T01:13:29;101982.38;;;1.40;77.84
79584;BME280;69053;57.338;18.700;2023-11-19T01:16:29;101950.75;;;1.44;78.02
79584;BME280;69053;57.338;18.700;2023-11-19T01:19:31;101946.22;;;1.44;77.88
79584;BME280;69053;57.338;18.700;2023-11-19T01:22:32;101944.66;;;1.42;77.86
79584;BME280;69053;57.338;18.700;2023-11-19T01:25:32;101939.91;;;1.34;78.16
79584;BME280;69053;57.338;18.700;2023-11-19T01:28:32;101929.69;;;1.28;78.20
79584;BME280;69053;57.338;18.700;2023-11-19T01:31:33;101920.56;;;1.19;78.29
79584;BME280;69053;57.338;18.700;2023-11-19T01:34:34;101920.19;;;1.12;78.33
79584;BME280;69053;57.338;18.700;2023-11-19T01:37:35;101915.59;;;1.03;78.68
79584;BME280;69053;57.338;18.700;2023-11-19T01:40:39;101910.00;;;0.95;78.72
79584;BME280;69053;57.338;18.700;2023-11-19T01:43:39;101904.97;;;0.90;78.95
79584;BME280;69053;57.338;18.700;2023-11-19T01:46:44;101912.66;;;0.95;78.80
79584;BME280;69053;57.338;18.700;2023-11-19T01:49:47;101906.06;;;0.99;78.89
79584;BME280;69053;57.338;18.700;2023-11-19T01:52:48;101904.72;;;1.05;78.58
79584;BME280;69053;57.338;18.700;2023-11-19T01:55:49;101896.66;;;1.05;78.68
79584;BME280;69053;57.338;18.700;2023-11-19T01:58:50;101904.59;;;1.06;79.25
79584;BME280;69053;57.338;18.700;2023-11-19T02:01:51;101898.84;;;1.11;79.41
79584;BME280;69053;57.338;18.700;2023-11-19T02:04:52;101887.50;;;1.19;79.62
79584;BME280;69053;57.338;18.700;2023-11-19T02:07:53;101885.16;;;1.25;79.22
79584;BME280;69053;57.338;18.700;2023-11-19T02:10:53;101875.47;;;1.34;79.38
79584;BME280;69053;57.338;18.700;2023-11-19T02:13:57;101867.53;;;1.44;79.58
79584;BME280;69053;57.338;18.700;2023-11-19T02:16:57;101866.91;;;1.52;79.68
79584;BME280;69053;57.338;18.700;2023-11-19T02:19:58;101854.19;;;1.54;79.75
79584;BME280;69053;57.338;18.700;2023-11-19T02:22:58;101860.28;;;1.56;79.80
79584;BME280;69053;57.338;18.700;2023-11-19T02:26:52;101847.81;;;1.55;79.49
79584;BME280;69053;57.338;18.700;2023-11-19T02:29:26;101847.63;;;1.46;79.56
79584;BME280;69053;57.338;18.700;2023-11-19T02:32:28;101842.88;;;1.39;79.67
79584;BME280;69053;57.338;18.700;2023-11-19T02:35:31;101842.53;;;1.32;79.58
79584;BME280;69053;57.338;18.700;2023-11-19T02:38:33;101838.91;;;1.22;79.72
79584;BME280;69053;57.338;18.700;2023-11-19T02:41:33;101827.25;;;1.11;79.90
79584;BME280;69053;57.338;18.700;2023-11-19T02:44:34;101819.00;;;1.03;79.83
79584;BME280;69053;57.338;18.700;2023-11-19T02:47:34;101823.13;;;0.96;80.05
79584;BME280;69053;57.338;18.700;2023-11-19T02:50:36;101816.69;;;0.87;80.00
79584;BME280;69053;57.338;18.700;2023-11-19T02:53:37;101815.50;;;0.80;80.16
79584;BME280;69053;57.338;18.700;2023-11-19T02:56:42;101814.78;;;0.78;80.13
79584;BME280;69053;57.338;18.700;2023-11-19T02:59:43;101807.56;;;0.79;80.19
79584;BME280;69053;57.338;18.700;2023-11-19T03:02:44;101811.72;;;0.83;80.36
79584;BME280;69053;57.338;18.700;2023-11-19T03:05:54;101802.44;;;0.87;79.92
79584;BME280;69053;57.338;18.700;2023-11-19T03:08:55;101787.78;;;0.91;79.73
79584;BME280;69053;57.338;18.700;2023-11-19T03:11:56;101788.25;;;0.96;79.55
79584;BME280;69053;57.338;18.700;2023-11-19T03:14:56;101789.59;;;1.02;79.83
79584;BME280;69053;57.338;18.700;2023-11-19T03:17:57;101782.16;;;1.05;79.90
79584;BME280;69053;57.338;18.700;2023-11-19T03:20:57;101776.53;;;1.08;79.67
79584;BME280;69053;57.338;18.700;2023-11-19T03:23:58;101770.28;;;1.08;79.88
79584;BME280;69053;57.338;18.700;2023-11-19T03:27:02;101760.44;;;1.08;79.72
79584;BME280;69053;57.338;18.700;2023-11-19T03:30:10;101768.63;;;1.07;79.64
79584;BME280;69053;57.338;18.700;2023-11-19T03:33:11;101761.66;;;1.04;79.64
79584;BME280;69053;57.338;18.700;2023-11-19T03:36:11;101759.09;;;1.03;79.96
79584;BME280;69053;57.338;18.700;2023-11-19T03:39:13;101747.66;;;1.01;79.61
79584;BME280;69053;57.338;18.700;2023-11-19T03:42:13;101741.03;;;1.05;80.01
79584;BME280;69053;57.338;18.700;2023-11-19T03:45:13;101742.13;;;1.14;80.11
79584;BME280;69053;57.338;18.700;2023-11-19T03:48:15;101734.19;;;1.33;80.54
79584;BME280;69053;57.338;18.700;2023-11-19T03:51:16;101726.97;;;1.55;80.81
79584;BME280;69053;57.338;18.700;2023-11-19T03:54:17;101720.72;;;1.75;80.85
79584;BME280;69053;57.338;18.700;2023-11-19T03:57:18;101716.69;;;1.91;81.11
79584;BME280;69053;57.338;18.700;2023-11-19T04:00:19;101713.66;;;2.05;80.97
79584;BME280;69053;57.338;18.700;2023-11-19T04:03:21;101708.03;;;2.18;80.91
79584;BME280;69053;57.338;18.700;2023-11-19T04:06:21;101696.75;;;2.24;80.86
79584;BME280;69053;57.338;18.700;2023-11-19T04:09:22;101699.00;;;2.29;81.05
79584;BME280;69053;57.338;18.700;2023-11-19T04:12:22;101700.19;;;2.36;81.22
79584;BME280;69053;57.338;18.700;2023-11-19T04:15:23;101692.53;;;2.41;81.16
79584;BME280;69053;57.338;18.700;2023-11-19T04:18:24;101691.28;;;2.45;81.54
79584;BME280;69053;57.338;18.700;2023-11-19T04:21:24;101679.22;;;2.49;81.57
79584;BME280;69053;57.338;18.700;2023-11-19T04:24:25;101673.84;;;2.49;81.42
79584;BME280;69053;57.338;18.700;2023-11-19T04:27:26;101668.19;;;2.52;81.51
79584;BME280;69053;57.338;18.700;2023-11-19T04:30:26;101670.75;;;2.54;81.59
79584;BME280;69053;57.338;18.700;2023-11-19T04:33:26;101668.19;;;2.52;81.63
79584;BME280;69053;57.338;18.700;2023-11-19T04:36:27;101662.81;;;2.52;81.92
79584;BME280;69053;57.338;18.700;2023-11-19T04:39:27;101653.94;;;2.61;81.97
79584;BME280;69053;57.338;18.700;2023-11-19T04:42:28;101659.28;;;2.71;82.38
79584;BME280;69053;57.338;18.700;2023-11-19T04:45:29;101669.22;;;2.80;82.50
79584;BME280;69053;57.338;18.700;2023-11-19T04:48:30;101654.19;;;2.88;82.32
79584;BME280;69053;57.338;18.700;2023-11-19T04:51:30;101647.38;;;2.93;82.21
79584;BME280;69053;57.338;18.700;2023-11-19T04:54:30;101645.41;;;2.95;82.42
79584;BME280;69053;57.338;18.700;2023-11-19T04:57:31;101650.66;;;2.97;82.57
79584;BME280;69053;57.338;18.700;2023-11-19T05:00:32;101636.75;;;3.02;82.81
79584;BME280;69053;57.338;18.700;2023-11-19T05:03:33;101630.78;;;3.08;82.55
79584;BME280;69053;57.338;18.700;2023-11-19T05:06:33;101624.97;;;3.12;82.35
79584;BME280;69053;57.338;18.700;2023-11-19T05:09:35;101618.31;;;3.16;82.78
79584;BME280;69053;57.338;18.700;2023-11-19T05:12:35;101626.34;;;3.26;83.05
79584;BME280;69053;57.338;18.700;2023-11-19T05:15:36;101614.41;;;3.38;83.25
79584;BME280;69053;57.338;18.700;2023-11-19T05:18:36;101612.84;;;3.46;82.77
79584;BME280;69053;57.338;18.700;2023-11-19T05:21:37;101602.03;;;3.55;83.64
79584;BME280;69053;57.338;18.700;2023-11-19T05:24:37;101591.50;;;3.62;83.63
79584;BME280;69053;57.338;18.700;2023-11-19T05:27:38;101597.28;;;3.67;83.31
79584;BME280;69053;57.338;18.700;2023-11-19T05:30:38;101589.75;;;3.71;83.35
79584;BME280;69053;57.338;18.700;2023-11-19T05:33:39;101595.00;;;3.72;83.89
79584;BME280;69053;57.338;18.700;2023-11-19T05:36:39;101593.94;;;3.83;84.15
79584;BME280;69053;57.338;18.700;2023-11-19T05:39:40;101585.13;;;3.91;84.48
79584;BME280;69053;57.338;18.700;2023-11-19T05:42:41;101582.97;;;3.94;83.91
79584;BME280;69053;57.338;18.700;2023-11-19T05:45:41;101582.38;;;4.01;84.22
79584;BME280;69053;57.338;18.700;2023-11-19T05:48:42;101572.97;;;4.05;83.88
79584;BME280;69053;57.338;18.700;2023-11-19T05:51:42;101567.81;;;4.11;83.97
79584;BME280;69053;57.338;18.700;2023-11-19T05:54:43;101573.59;;;4.17;83.48
79584;BME280;69053;57.338;18.700;2023-11-19T05:57:43;101576.38;;;4.25;83.37
79584;BME280;69053;57.338;18.700;2023-11-19T06:00:46;101565.25;;;4.28;83.92
79584;BME280;69053;57.338;18.700;2023-11-19T06:03:47;101560.88;;;4.27;83.60
79584;BME280;69053;57.338;18.700;2023-11-19T06:06:50;101565.66;;;4.33;83.66
79584;BME280;69053;57.338;18.700;2023-11-19T06:09:50;101564.38;;;4.37;83.60
79584;BME280;69053;57.338;18.700;2023-11-19T06:12:50;101552.41;;;4.40;83.54
79584;BME280;69053;57.338;18.700;2023-11-19T06:15:56;101552.09;;;4.43;83.68
79584;BME280;69053;57.338;18.700;2023-11-19T06:18:56;101551.94;;;4.44;83.22
79584;BME280;69053;57.338;18.700;2023-11-19T06:21:57;101555.31;;;4.46;83.05
79584;BME280;69053;57.338;18.700;2023-11-19T06:24:57;101552.16;;;4.51;82.94
79584;BME280;69053;57.338;18.700;2023-11-19T06:27:58;101549.16;;;4.54;82.63
79584;BME280;69053;57.338;18.700;2023-11-19T06:30:59;101550.31;;;4.51;82.66
79584;BME280;69053;57.338;18.700;2023-11-19T06:33:59;101546.69;;;4.61;82.33
79584;BME280;69053;57.338;18.700;2023-11-19T06:37:00;101543.66;;;4.64;82.44
79584;BME280;69053;57.338;18.700;2023-11-19T06:40:00;101542.81;;;4.63;82.92
79584;BME280;69053;57.338;18.700;2023-11-19T06:43:01;101530.69;;;4.67;82.59
79584;BME280;69053;57.338;18.700;2023-11-19T06:46:03;101539.16;;;4.73;82.47
79584;BME280;69053;57.338;18.700;2023-11-19T06:49:06;101534.00;;;4.79;81.87
79584;BME280;69053;57.338;18.700;2023-11-19T06:52:08;101529.84;;;4.85;81.91
79584;BME280;69053;57.338;18.700;2023-11-19T06:55:08;101522.56;;;4.85;81.05
79584;BME280;69053;57.338;18.700;2023-11-19T06:58:09;101525.94;;;4.87;80.79
79584;BME280;69053;57.338;18.700;2023-11-19T07:01:09;101528.97;;;4.84;80.59
79584;BME280;69053;57.338;18.700;2023-11-19T07:04:12;101531.19;;;4.89;80.58
79584;BME280;69053;57.338;18.700;2023-11-19T07:07:13;101528.66;;;4.87;81.10
79584;BME280;69053;57.338;18.700;2023-11-19T07:10:15;101529.66;;;4.86;81.18
79584;BME280;69053;57.338;18.700;2023-11-19T07:13:15;101528.13;;;4.84;81.19
79584;BME280;69053;57.338;18.700;2023-11-19T07:16:16;101518.50;;;4.81;80.71
79584;BME280;69053;57.338;18.700;2023-11-19T07:19:16;101521.44;;;4.70;81.31
79584;BME280;69053;57.338;18.700;2023-11-19T07:22:17;101519.06;;;4.67;81.51
79584;BME280;69053;57.338;18.700;2023-11-19T07:25:17;101526.56;;;4.55;81.46
79584;BME280;69053;57.338;18.700;2023-11-19T07:28:18;101514.78;;;4.56;81.40
79584;BME280;69053;57.338;18.700;2023-11-19T07:31:18;101512.91;;;4.57;81.68
79584;BME280;69053;57.338;18.700;2023-11-19T07:34:19;101499.13;;;4.60;81.79
79584;BME280;69053;57.338;18.700;2023-11-19T07:37:21;101505.88;;;4.64;81.39
79584;BME280;69053;57.338;18.700;2023-11-19T07:40:22;101499.34;;;4.66;81.92
79584;BME280;69053;57.338;18.700;2023-11-19T07:43:23;101492.75;;;4.69;81.85
79584;BME280;69053;57.338;18.700;2023-11-19T07:46:23;101494.16;;;4.73;81.62
79584;BME280;69053;57.338;18.700;2023-11-19T07:49:25;101492.13;;;4.75;81.59
79584;BME280;69053;57.338;18.700;2023-11-19T07:52:25;101486.75;;;4.75;81.58
79584;BME280;69053;57.338;18.700;2023-11-19T07:55:26;101484.72;;;4.77;81.19
79584;BME280;69053;57.338;18.700;2023-11-19T07:58:27;101486.44;;;4.78;81.69
79584;BME280;69053;57.338;18.700;2023-11-19T08:01:28;101484.72;;;4.77;81.70
79584;BME280;69053;57.338;18.700;2023-11-19T08:04:29;101486.94;;;4.82;81.69
79584;BME280;69053;57.338;18.700;2023-11-19T08:07:29;101477.00;;;4.82;81.88
79584;BME280;69053;57.338;18.700;2023-11-19T08:10:29;101479.75;;;4.91;81.71
79584;BME280;69053;57.338;18.700;2023-11-19T08:13:30;101470.16;;;4.96;81.16
79584;BME280;69053;57.338;18.700;2023-11-19T08:16:31;101461.25;;;5.04;81.18
79584;BME280;69053;57.338;18.700;2023-11-19T08:19:32;101465.00;;;5.11;81.59
79584;BME280;69053;57.338;18.700;2023-11-19T08:22:32;101465.03;;;5.19;81.37
79584;BME280;69053;57.338;18.700;2023-11-19T08:25:33;101464.38;;;5.25;80.63
79584;BME280;69053;57.338;18.700;2023-11-19T08:28:37;101461.69;;;5.25;80.96
79584;BME280;69053;57.338;18.700;2023-11-19T08:31:37;101456.94;;;5.28;81.02
79584;BME280;69053;57.338;18.700;2023-11-19T08:34:38;101457.16;;;5.34;80.65
79584;BME280;69053;57.338;18.700;2023-11-19T08:37:38;101461.56;;;5.35;80.73
79584;BME280;69053;57.338;18.700;2023-11-19T08:40:39;101459.22;;;5.40;80.01
79584;BME280;69053;57.338;18.700;2023-11-19T08:43:39;101450.25;;;5.48;79.16
79584;BME280;69053;57.338;18.700;2023-11-19T08:46:47;101447.06;;;5.53;78.69
79584;BME280;69053;57.338;18.700;2023-11-19T08:49:50;101436.47;;;5.59;78.53
79584;BME280;69053;57.338;18.700;2023-11-19T08:52:52;101435.97;;;5.64;78.03
79584;BME280;69053;57.338;18.700;2023-11-19T08:55:52;101432.06;;;5.67;77.44
79584;BME280;69053;57.338;18.700;2023-11-19T08:58:53;101428.88;;;5.71;77.23
79584;BME280;69053;57.338;18.700;2023-11-19T09:01:53;101432.09;;;5.75;77.11
79584;BME280;69053;57.338;18.700;2023-11-19T09:04:54;101427.03;;;5.80;77.09
79584;BME280;69053;57.338;18.700;2023-11-19T09:07:54;101420.44;;;5.82;76.90
79584;BME280;69053;57.338;18.700;2023-11-19T09:10:55;101414.69;;;5.86;76.84
79584;BME280;69053;57.338;18.700;2023-11-19T09:13:55;101407.09;;;5.89;76.44
79584;BME280;69053;57.338;18.700;2023-11-19T09:16:56;101406.75;;;5.92;76.90
79584;BME280;69053;57.338;18.700;2023-11-19T09:19:57;101409.13;;;5.95;76.80
79584;BME280;69053;57.338;18.700;2023-11-19T09:22:57;101398.31;;;5.95;77.39
79584;BME280;69053;57.338;18.700;2023-11-19T09:25:57;101399.84;;;5.98;77.43
79584;BME280;69053;57.338;18.700;2023-11-19T09:28:58;101406.47;;;6.04;77.49
79584;BME280;69053;57.338;18.700;2023-11-19T09:31:59;101401.88;;;6.04;77.60
79584;BME280;69053;57.338;18.700;2023-11-19T09:34:59;101409.00;;;6.05;77.58
79584;BME280;69053;57.338;18.700;2023-11-19T09:38:00;101405.59;;;6.11;77.56
79584;BME280;69053;57.338;18.700;2023-11-19T09:41:01;101405.78;;;6.10;77.82
79584;BME280;69053;57.338;18.700;2023-11-19T09:44:02;101390.91;;;6.14;77.93
79584;BME280;69053;57.338;18.700;2023-11-19T09:47:03;101398.66;;;6.17;77.67
79584;BME280;69053;57.338;18.700;2023-11-19T09:50:04;101387.16;;;6.23;77.63
79584;BME280;69053;57.338;18.700;2023-11-19T09:53:05;101387.50;;;6.28;77.58
79584;BME280;69053;57.338;18.700;2023-11-19T09:56:07;101382.41;;;6.33;77.14
79584;BME280;69053;57.338;18.700;2023-11-19T09:59:10;101376.00;;;6.34;76.36
79584;BME280;69053;57.338;18.700;2023-11-19T10:02:11;101378.50;;;6.36;76.14
79584;BME280;69053;57.338;18.700;2023-11-19T10:05:12;101372.91;;;6.46;76.48
79584;BME280;69053;57.338;18.700;2023-11-19T10:08:14;101372.06;;;6.53;76.51
79584;BME280;69053;57.338;18.700;2023-11-19T10:11:17;101369.69;;;6.50;75.97
79584;BME280;69053;57.338;18.700;2023-11-19T10:14:22;101363.09;;;6.53;76.49
79584;BME280;69053;57.338;18.700;2023-11-19T10:17:28;101357.31;;;6.56;75.98
79584;BME280;69053;57.338;18.700;2023-11-19T10:20:29;101354.63;;;6.56;75.36
79584;BME280;69053;57.338;18.700;2023-11-19T10:23:51;101350.25;;;6.55;75.14
79584;BME280;69053;57.338;18.700;2023-11-19T10:26:52;101352.97;;;6.47;75.04
79584;BME280;69053;57.338;18.700;2023-11-19T10:29:53;101352.47;;;6.43;75.23
79584;BME280;69053;57.338;18.700;2023-11-19T10:33:03;101352.81;;;6.32;75.55
79584;BME280;69053;57.338;18.700;2023-11-19T10:36:06;101353.00;;;6.22;76.17
79584;BME280;69053;57.338;18.700;2023-11-19T10:39:07;101344.59;;;6.09;76.93
79584;BME280;69053;57.338;18.700;2023-11-19T10:42:15;101339.69;;;6.04;76.92
79584;BME280;69053;57.338;18.700;2023-11-19T10:45:23;101335.44;;;6.01;77.16
79584;BME280;69053;57.338;18.700;2023-11-19T10:48:24;101328.88;;;6.04;77.48
79584;BME280;69053;57.338;18.700;2023-11-19T10:51:25;101328.53;;;6.07;77.70
79584;BME280;69053;57.338;18.700;2023-11-19T10:54:26;101318.72;;;6.14;77.48
79584;BME280;69053;57.338;18.700;2023-11-19T10:57:30;101322.75;;;6.18;77.50
79584;BME280;69053;57.338;18.700;2023-11-19T11:00:43;101324.78;;;6.25;77.38
79584;BME280;69053;57.338;18.700;2023-11-19T11:03:45;101322.91;;;6.25;77.31
79584;BME280;69053;57.338;18.700;2023-11-19T11:06:51;101317.66;;;6.24;77.09
79584;BME280;69053;57.338;18.700;2023-11-19T11:09:54;101312.41;;;6.22;77.18
79584;BME280;69053;57.338;18.700;2023-11-19T11:12:57;101311.75;;;6.20;76.84
79584;BME280;69053;57.338;18.700;2023-11-19T11:16:00;101309.38;;;6.17;77.13
79584;BME280;69053;57.338;18.700;2023-11-19T11:19:00;101310.59;;;6.14;76.84
79584;BME280;69053;57.338;18.700;2023-11-19T11:22:02;101308.06;;;6.13;76.92
79584;BME280;69053;57.338;18.700;2023-11-19T11:25:16;101309.75;;;6.14;76.96
79584;BME280;69053;57.338;18.700;2023-11-19T11:28:32;101304.69;;;6.19;76.93
79584;BME280;69053;57.338;18.700;2023-11-19T11:38:08;101293.97;;;6.26;76.77
79584;BME280;69053;57.338;18.700;2023-11-19T11:41:19;101293.81;;;6.27;76.72
79584;BME280;69053;57.338;18.700;2023-11-19T11:48:08;101282.00;;;6.20;75.93
79584;BME280;69053;57.338;18.700;2023-11-19T11:51:09;101286.22;;;6.23;75.33
79584;BME280;69053;57.338;18.700;2023-11-19T11:54:30;101278.28;;;6.21;75.00
79584;BME280;69053;57.338;18.700;2023-11-19T11:57:36;101268.13;;;6.23;75.09
79584;BME280;69053;57.338;18.700;2023-11-19T12:00:39;101261.72;;;6.24;75.17
79584;BME280;69053;57.338;18.700;2023-11-19T12:03:39;101265.78;;;6.20;75.15
79584;BME280;69053;57.338;18.700;2023-11-19T12:06:40;101262.56;;;6.25;75.29
79584;BME280;69053;57.338;18.700;2023-11-19T12:09:41;101259.69;;;6.26;74.98
79584;BME280;69053;57.338;18.700;2023-11-19T12:12:42;101259.34;;;6.29;74.96
79584;BME280;69053;57.338;18.700;2023-11-19T12:19:02;101253.41;;;6.26;74.54
79584;BME280;69053;57.338;18.700;2023-11-19T12:22:10;101256.97;;;6.26;74.41
79584;BME280;69053;57.338;18.700;2023-11-19T12:25:12;101248.00;;;6.26;74.10
79584;BME280;69053;57.338;18.700;2023-11-19T12:28:13;101243.28;;;6.19;73.80
79584;BME280;69053;57.338;18.700;2023-11-19T12:31:14;101236.16;;;6.27;73.84
79584;BME280;69053;57.338;18.700;2023-11-19T12:34:14;101227.88;;;6.28;73.72
79584;BME280;69053;57.338;18.700;2023-11-19T12:37:15;101226.50;;;6.32;73.79
79584;BME280;69053;57.338;18.700;2023-11-19T12:40:20;101223.09;;;6.38;73.75
79584;BME280;69053;57.338;18.700;2023-11-19T12:43:21;101224.41;;;6.43;73.19
79584;BME280;69053;57.338;18.700;2023-11-19T12:46:25;101216.47;;;6.41;73.63
79584;BME280;69053;57.338;18.700;2023-11-19T12:49:27;101222.75;;;6.42;73.70
79584;BME280;69053;57.338;18.700;2023-11-19T12:52:28;101214.63;;;6.42;74.05
79584;BME280;69053;57.338;18.700;2023-11-19T12:55:29;101213.44;;;6.36;74.40
79584;BME280;69053;57.338;18.700;2023-11-19T12:58:34;101215.00;;;6.30;73.56
79584;BME280;69053;57.338;18.700;2023-11-19T13:01:34;101210.25;;;6.32;73.28
79584;BME280;69053;57.338;18.700;2023-11-19T13:04:35;101209.28;;;6.25;72.95
79584;BME280;69053;57.338;18.700;2023-11-19T13:07:35;101194.88;;;6.33;72.22
79584;BME280;69053;57.338;18.700;2023-11-19T13:14:01;101187.91;;;6.38;71.25
79584;BME280;69053;57.338;18.700;2023-11-19T13:17:04;101188.25;;;6.35;71.42
79584;BME280;69053;57.338;18.700;2023-11-19T13:20:06;101195.53;;;6.35;71.27
79584;BME280;69053;57.338;18.700;2023-11-19T13:23:07;101186.78;;;6.33;70.85
79584;BME280;69053;57.338;18.700;2023-11-19T13:26:08;101182.19;;;6.33;70.73
79584;BME280;69053;57.338;18.700;2023-11-19T13:29:08;101177.13;;;6.30;70.44
79584;BME280;69053;57.338;18.700;2023-11-19T13:32:10;101184.09;;;6.25;69.85
79584;BME280;69053;57.338;18.700;2023-11-19T13:35:10;101178.16;;;6.29;69.45
79584;BME280;69053;57.338;18.700;2023-11-19T13:38:11;101176.47;;;6.28;68.87
79584;BME280;69053;57.338;18.700;2023-11-19T13:41:12;101174.41;;;6.30;68.82
79584;BME280;69053;57.338;18.700;2023-11-19T13:44:13;101168.00;;;6.31;68.72
79584;BME280;69053;57.338;18.700;2023-11-19T13:47:14;101167.13;;;6.31;68.98
79584;BME280;69053;57.338;18.700;2023-11-19T13:50:15;101165.28;;;6.31;69.21
79584;BME280;69053;57.338;18.700;2023-11-19T13:53:17;101159.03;;;6.31;69.16
79584;BME280;69053;57.338;18.700;2023-11-19T13:56:17;101174.41;;;6.30;69.12
79584;BME280;69053;57.338;18.700;2023-11-19T13:59:18;101164.63;;;6.29;69.13
79584;BME280;69053;57.338;18.700;2023-11-19T14:02:18;101167.34;;;6.29;69.50
79584;BME280;69053;57.338;18.700;2023-11-19T14:05:19;101168.53;;;6.27;69.54
79584;BME280;69053;57.338;18.700;2023-11-19T14:08:19;101176.97;;;6.24;70.30
79584;BME280;69053;57.338;18.700;2023-11-19T14:11:20;101178.56;;;6.10;71.42
79584;BME280;69053;57.338;18.700;2023-11-19T14:14:20;101171.16;;;5.95;72.09
79584;BME280;69053;57.338;18.700;2023-11-19T14:17:20;101156.69;;;5.80;72.92
79584;BME280;69053;57.338;18.700;2023-11-19T14:20:21;101163.25;;;5.77;73.49
79584;BME280;69053;57.338;18.700;2023-11-19T14:23:21;101154.50;;;5.75;74.11
79584;BME280;69053;57.338;18.700;2023-11-19T14:26:22;101159.75;;;5.69;74.74
79584;BME280;69053;57.338;18.700;2023-11-19T14:29:22;101163.13;;;5.71;74.55
79584;BME280;69053;57.338;18.700;2023-11-19T14:32:23;101160.41;;;5.71;74.77
79584;BME280;69053;57.338;18.700;2023-11-19T14:35:23;101168.53;;;5.71;74.42
79584;BME280;69053;57.338;18.700;2023-11-19T14:38:25;101161.44;;;5.70;73.96
79584;BME280;69053;57.338;18.700;2023-11-19T14:41:25;101158.75;;;5.70;73.79
79584;BME280;69053;57.338;18.700;2023-11-19T14:44:26;101164.50;;;5.67;73.98
79584;BME280;69053;57.338;18.700;2023-11-19T14:47:27;101163.81;;;5.64;73.48
79584;BME280;69053;57.338;18.700;2023-11-19T14:50:27;101159.75;;;5.69;73.62
79584;BME280;69053;57.338;18.700;2023-11-19T14:53:28;101163.97;;;5.71;73.90
79584;BME280;69053;57.338;18.700;2023-11-19T14:56:28;101161.28;;;5.71;73.65
79584;BME280;69053;57.338;18.700;2023-11-19T14:59:29;101157.03;;;5.69;73.09
79584;BME280;69053;57.338;18.700;2023-11-19T15:02:29;101152.00;;;5.66;72.91
79584;BME280;69053;57.338;18.700;2023-11-19T15:05:30;101151.47;;;5.62;72.46
79584;BME280;69053;57.338;18.700;2023-11-19T15:08:30;101147.28;;;5.59;72.18
79584;BME280;69053;57.338;18.700;2023-11-19T15:11:31;101145.97;;;5.55;71.81
79584;BME280;69053;57.338;18.700;2023-11-19T15:14:31;101142.56;;;5.53;71.77
79584;BME280;69053;57.338;18.700;2023-11-19T15:17:32;101137.31;;;5.52;71.62
79584;BME280;69053;57.338;18.700;2023-11-19T15:20:32;101135.16;;;5.55;71.48
79584;BME280;69053;57.338;18.700;2023-11-19T15:23:33;101139.34;;;5.58;71.52
79584;BME280;69053;57.338;18.700;2023-11-19T15:26:34;101139.84;;;5.61;71.70
79584;BME280;69053;57.338;18.700;2023-11-19T15:29:35;101143.22;;;5.63;71.80
79584;BME280;69053;57.338;18.700;2023-11-19T15:32:35;101143.03;;;5.65;70.96
79584;BME280;69053;57.338;18.700;2023-11-19T15:35:36;101139.31;;;5.74;69.85
79584;BME280;69053;57.338;18.700;2023-11-19T15:38:38;101140.00;;;5.68;69.58
79584;BME280;69053;57.338;18.700;2023-11-19T15:41:38;101146.06;;;5.70;69.58
79584;BME280;69053;57.338;18.700;2023-11-19T15:44:38;101139.00;;;5.69;69.21
79584;BME280;69053;57.338;18.700;2023-11-19T15:47:39;101146.41;;;5.67;68.76
79584;BME280;69053;57.338;18.700;2023-11-19T15:50:40;101136.13;;;5.62;68.36
79584;BME280;69053;57.338;18.700;2023-11-19T15:53:40;101142.88;;;5.58;68.57
79584;BME280;69053;57.338;18.700;2023-11-19T15:56:42;101150.50;;;5.55;68.29
79584;BME280;69053;57.338;18.700;2023-11-19T15:59:42;101137.84;;;5.55;67.96
79584;BME280;69053;57.338;18.700;2023-11-19T16:02:43;101143.91;;;5.57;67.91
79584;BME280;69053;57.338;18.700;2023-11-19T16:05:43;101137.31;;;5.60;68.43